Edinburg, Pennsylvania
Current Conditions -  °F | °C
As of 9:17 AM on Sunday 25 Jan 2015 (Local Time) from KUCP Reporting Station
Haze Haze  
Wind Chill: 34°   Ceiling: 1000
Heat Index: 34°   Visibility: 1.5mi
Dew Point: 32°   Wind: 0mph
Humidity: 93%   Direction: NA
Pressure: 29.78"   Gusts: NA
Location:  41.01°N, 80.44°W
Report Text: KUCP 251417Z AUTO 00000KT 1 1/2SM BR OVC010 01/00 A2978 RMK AO2 TSNO $
Loading
Personal Weather Stations






























Interactive Weather Map New forecast layout! Learn more

10-Day Weather Forecast

Advertisements
Track Severe Weather on mobile